sensor_id;sensor_type;location;lat;lon;timestamp;temperature;humidity
3380;DHT22;1703;51.964;7.642;2023-12-28T00:00:44;9.30;99.90
3380;DHT22;1703;51.964;7.642;2023-12-28T00:03:11;9.30;99.90
3380;DHT22;1703;51.964;7.642;2023-12-28T00:05:39;9.20;99.90
3380;DHT22;1703;51.964;7.642;2023-12-28T00:08:06;9.20;99.90
3380;DHT22;1703;51.964;7.642;2023-12-28T00:10:33;9.10;99.90
3380;DHT22;1703;51.964;7.642;2023-12-28T00:13:02;9.10;99.90
3380;DHT22;1703;51.964;7.642;2023-12-28T00:15:29;9.10;99.90
3380;DHT22;1703;51.964;7.642;2023-12-28T00:17:56;9.10;99.90
3380;DHT22;1703;51.964;7.642;2023-12-28T00:20:23;9.10;99.90
3380;DHT22;1703;51.964;7.642;2023-12-28T00:22:51;9.10;99.90
3380;DHT22;1703;51.964;7.642;2023-12-28T00:25:18;9.10;99.90
3380;DHT22;1703;51.964;7.642;2023-12-28T00:27:45;9.10;99.90
3380;DHT22;1703;51.964;7.642;2023-12-28T00:30:13;9.00;99.90
3380;DHT22;1703;51.964;7.642;2023-12-28T00:32:40;9.00;99.90
3380;DHT22;1703;51.964;7.642;2023-12-28T00:35:09;9.00;99.90
3380;DHT22;1703;51.964;7.642;2023-12-28T00:37:35;9.00;99.90
3380;DHT22;1703;51.964;7.642;2023-12-28T00:40:05;9.00;99.90
3380;DHT22;1703;51.964;7.642;2023-12-28T00:42:32;9.00;99.90
3380;DHT22;1703;51.964;7.642;2023-12-28T00:44:58;9.00;99.90
3380;DHT22;1703;51.964;7.642;2023-12-28T00:47:25;9.00;99.90
3380;DHT22;1703;51.964;7.642;2023-12-28T00:49:52;9.10;99.90
3380;DHT22;1703;51.964;7.642;2023-12-28T00:52:19;9.00;99.90
3380;DHT22;1703;51.964;7.642;2023-12-28T00:54:46;9.10;99.90
3380;DHT22;1703;51.964;7.642;2023-12-28T00:57:14;9.10;99.90
3380;DHT22;1703;51.964;7.642;2023-12-28T00:59:41;9.10;99.90
3380;DHT22;1703;51.964;7.642;2023-12-28T01:02:09;9.10;99.90
3380;DHT22;1703;51.964;7.642;2023-12-28T01:04:36;9.10;99.90
3380;DHT22;1703;51.964;7.642;2023-12-28T01:07:03;9.10;99.90
3380;DHT22;1703;51.964;7.642;2023-12-28T01:09:31;9.20;99.90
3380;DHT22;1703;51.964;7.642;2023-12-28T01:11:58;9.20;99.90
3380;DHT22;1703;51.964;7.642;2023-12-28T01:14:27;9.20;99.90
3380;DHT22;1703;51.964;7.642;2023-12-28T01:16:53;9.20;99.90
3380;DHT22;1703;51.964;7.642;2023-12-28T01:19:20;9.20;99.90
3380;DHT22;1703;51.964;7.642;2023-12-28T01:21:48;9.20;99.90
3380;DHT22;1703;51.964;7.642;2023-12-28T01:24:15;9.20;99.90
3380;DHT22;1703;51.964;7.642;2023-12-28T01:26:42;9.20;99.90
3380;DHT22;1703;51.964;7.642;2023-12-28T01:29:09;9.20;99.90
3380;DHT22;1703;51.964;7.642;2023-12-28T01:31:38;9.20;99.90
3380;DHT22;1703;51.964;7.642;2023-12-28T01:34:07;9.20;99.90
3380;DHT22;1703;51.964;7.642;2023-12-28T01:36:35;9.10;99.90
3380;DHT22;1703;51.964;7.642;2023-12-28T01:39:02;9.10;99.90
3380;DHT22;1703;51.964;7.642;2023-12-28T01:41:29;9.10;99.90
3380;DHT22;1703;51.964;7.642;2023-12-28T01:43:56;9.10;99.90
3380;DHT22;1703;51.964;7.642;2023-12-28T01:46:23;9.10;99.90
3380;DHT22;1703;51.964;7.642;2023-12-28T01:48:51;9.10;99.90
3380;DHT22;1703;51.964;7.642;2023-12-28T01:51:19;9.00;99.90
3380;DHT22;1703;51.964;7.642;2023-12-28T01:53:47;9.00;99.90
3380;DHT22;1703;51.964;7.642;2023-12-28T01:56:16;9.10;99.90
3380;DHT22;1703;51.964;7.642;2023-12-28T01:58:44;9.10;99.90
3380;DHT22;1703;51.964;7.642;2023-12-28T02:01:12;9.10;99.90
3380;DHT22;1703;51.964;7.642;2023-12-28T02:03:39;9.10;99.90
3380;DHT22;1703;51.964;7.642;2023-12-28T02:06:08;9.20;99.90
3380;DHT22;1703;51.964;7.642;2023-12-28T02:08:35;9.20;99.90
3380;DHT22;1703;51.964;7.642;2023-12-28T02:11:02;9.20;99.90
3380;DHT22;1703;51.964;7.642;2023-12-28T02:13:29;9.30;99.90
3380;DHT22;1703;51.964;7.642;2023-12-28T02:16:00;9.30;99.90
3380;DHT22;1703;51.964;7.642;2023-12-28T02:18:34;9.30;99.90
3380;DHT22;1703;51.964;7.642;2023-12-28T02:21:05;9.30;99.90
3380;DHT22;1703;51.964;7.642;2023-12-28T02:23:34;9.30;99.90
3380;DHT22;1703;51.964;7.642;2023-12-28T02:26:02;9.30;99.90
3380;DHT22;1703;51.964;7.642;2023-12-28T02:28:29;9.30;99.90
3380;DHT22;1703;51.964;7.642;2023-12-28T02:30:56;9.30;99.90
3380;DHT22;1703;51.964;7.642;2023-12-28T02:33:26;9.30;99.90
3380;DHT22;1703;51.964;7.642;2023-12-28T02:35:58;9.30;99.90
3380;DHT22;1703;51.964;7.642;2023-12-28T02:38:29;9.30;99.90
3380;DHT22;1703;51.964;7.642;2023-12-28T02:40:57;9.30;99.90
3380;DHT22;1703;51.964;7.642;2023-12-28T02:43:26;9.30;99.90
3380;DHT22;1703;51.964;7.642;2023-12-28T02:45:53;9.30;99.90
3380;DHT22;1703;51.964;7.642;2023-12-28T02:48:20;9.30;99.90
3380;DHT22;1703;51.964;7.642;2023-12-28T02:50:47;9.30;99.90
3380;DHT22;1703;51.964;7.642;2023-12-28T02:53:14;9.30;99.90
3380;DHT22;1703;51.964;7.642;2023-12-28T02:55:41;9.30;99.90
3380;DHT22;1703;51.964;7.642;2023-12-28T02:58:08;9.30;99.90
3380;DHT22;1703;51.964;7.642;2023-12-28T03:00:37;9.30;99.90
3380;DHT22;1703;51.964;7.642;2023-12-28T03:03:04;9.40;99.90
3380;DHT22;1703;51.964;7.642;2023-12-28T03:05:31;9.40;99.90
3380;DHT22;1703;51.964;7.642;2023-12-28T03:07:57;9.50;99.90
3380;DHT22;1703;51.964;7.642;2023-12-28T03:10:24;9.50;99.90
3380;DHT22;1703;51.964;7.642;2023-12-28T03:12:51;9.60;99.90
3380;DHT22;1703;51.964;7.642;2023-12-28T03:15:18;9.60;99.90
3380;DHT22;1703;51.964;7.642;2023-12-28T03:17:46;9.60;99.90
3380;DHT22;1703;51.964;7.642;2023-12-28T03:20:14;9.60;99.90
3380;DHT22;1703;51.964;7.642;2023-12-28T03:22:41;9.60;99.90
3380;DHT22;1703;51.964;7.642;2023-12-28T03:25:08;9.70;99.90
3380;DHT22;1703;51.964;7.642;2023-12-28T03:27:35;9.70;99.90
3380;DHT22;1703;51.964;7.642;2023-12-28T03:30:01;9.70;99.90
3380;DHT22;1703;51.964;7.642;2023-12-28T03:36:20;9.60;99.90
3380;DHT22;1703;51.964;7.642;2023-12-28T03:38:48;9.70;99.90
3380;DHT22;1703;51.964;7.642;2023-12-28T03:41:17;9.70;99.90
3380;DHT22;1703;51.964;7.642;2023-12-28T03:43:44;9.70;99.90
3380;DHT22;1703;51.964;7.642;2023-12-28T03:46:11;9.70;99.90
3380;DHT22;1703;51.964;7.642;2023-12-28T03:48:39;9.70;99.90
3380;DHT22;1703;51.964;7.642;2023-12-28T03:51:06;9.70;99.90
3380;DHT22;1703;51.964;7.642;2023-12-28T03:53:35;9.70;99.90
3380;DHT22;1703;51.964;7.642;2023-12-28T03:56:01;9.70;99.90
3380;DHT22;1703;51.964;7.642;2023-12-28T03:58:28;9.70;99.90
3380;DHT22;1703;51.964;7.642;2023-12-28T04:00:55;9.70;99.90
3380;DHT22;1703;51.964;7.642;2023-12-28T04:03:22;9.70;99.90
3380;DHT22;1703;51.964;7.642;2023-12-28T04:05:48;9.70;99.90
3380;DHT22;1703;51.964;7.642;2023-12-28T04:08:15;9.70;99.90
3380;DHT22;1703;51.964;7.642;2023-12-28T04:10:43;9.70;99.90
3380;DHT22;1703;51.964;7.642;2023-12-28T04:13:10;9.70;99.90
3380;DHT22;1703;51.964;7.642;2023-12-28T04:15:41;9.70;99.90
3380;DHT22;1703;51.964;7.642;2023-12-28T04:18:08;9.70;99.90
3380;DHT22;1703;51.964;7.642;2023-12-28T04:20:35;9.70;99.90
3380;DHT22;1703;51.964;7.642;2023-12-28T04:23:02;9.70;99.90
3380;DHT22;1703;51.964;7.642;2023-12-28T04:25:28;9.70;99.90
3380;DHT22;1703;51.964;7.642;2023-12-28T04:27:57;9.60;99.90
3380;DHT22;1703;51.964;7.642;2023-12-28T04:30:23;9.70;99.90
3380;DHT22;1703;51.964;7.642;2023-12-28T04:32:50;9.70;99.90
3380;DHT22;1703;51.964;7.642;2023-12-28T04:35:17;9.70;99.90
3380;DHT22;1703;51.964;7.642;2023-12-28T04:37:44;9.80;99.90
3380;DHT22;1703;51.964;7.642;2023-12-28T04:40:11;9.80;99.90
3380;DHT22;1703;51.964;7.642;2023-12-28T04:42:39;9.80;99.90
3380;DHT22;1703;51.964;7.642;2023-12-28T04:45:08;9.80;99.90
3380;DHT22;1703;51.964;7.642;2023-12-28T04:47:35;9.80;99.90
3380;DHT22;1703;51.964;7.642;2023-12-28T04:50:03;9.80;99.90
3380;DHT22;1703;51.964;7.642;2023-12-28T04:52:30;9.90;99.90
3380;DHT22;1703;51.964;7.642;2023-12-28T04:54:57;9.90;99.90
3380;DHT22;1703;51.964;7.642;2023-12-28T04:57:24;10.00;99.90
3380;DHT22;1703;51.964;7.642;2023-12-28T04:59:51;10.00;99.90
3380;DHT22;1703;51.964;7.642;2023-12-28T05:02:19;10.00;99.90
3380;DHT22;1703;51.964;7.642;2023-12-28T05:04:46;10.00;99.90
3380;DHT22;1703;51.964;7.642;2023-12-28T05:07:13;10.00;99.90
3380;DHT22;1703;51.964;7.642;2023-12-28T05:09:40;10.00;99.90
3380;DHT22;1703;51.964;7.642;2023-12-28T05:12:06;10.00;99.90
3380;DHT22;1703;51.964;7.642;2023-12-28T05:14:33;10.00;99.90
3380;DHT22;1703;51.964;7.642;2023-12-28T05:17:00;10.10;99.90
3380;DHT22;1703;51.964;7.642;2023-12-28T05:19:28;10.10;99.90
3380;DHT22;1703;51.964;7.642;2023-12-28T05:21:55;10.00;99.90
3380;DHT22;1703;51.964;7.642;2023-12-28T05:24:22;10.00;99.90
3380;DHT22;1703;51.964;7.642;2023-12-28T05:26:48;10.10;99.90
3380;DHT22;1703;51.964;7.642;2023-12-28T05:29:15;10.00;99.90
3380;DHT22;1703;51.964;7.642;2023-12-28T05:31:42;10.00;99.90
3380;DHT22;1703;51.964;7.642;2023-12-28T05:34:09;10.00;99.90
3380;DHT22;1703;51.964;7.642;2023-12-28T05:36:37;10.00;99.90
3380;DHT22;1703;51.964;7.642;2023-12-28T05:39:06;10.10;99.90
3380;DHT22;1703;51.964;7.642;2023-12-28T05:41:34;10.10;99.90
3380;DHT22;1703;51.964;7.642;2023-12-28T05:44:01;10.10;99.90
3380;DHT22;1703;51.964;7.642;2023-12-28T05:46:28;10.10;99.90
3380;DHT22;1703;51.964;7.642;2023-12-28T05:48:55;10.20;99.90
3380;DHT22;1703;51.964;7.642;2023-12-28T05:51:21;10.20;99.90
3380;DHT22;1703;51.964;7.642;2023-12-28T05:53:49;10.20;99.90
3380;DHT22;1703;51.964;7.642;2023-12-28T05:56:16;10.20;99.90
3380;DHT22;1703;51.964;7.642;2023-12-28T05:58:43;10.30;99.90
3380;DHT22;1703;51.964;7.642;2023-12-28T06:01:10;10.30;99.90
3380;DHT22;1703;51.964;7.642;2023-12-28T06:03:37;10.30;99.90
3380;DHT22;1703;51.964;7.642;2023-12-28T06:06:04;10.30;99.90
3380;DHT22;1703;51.964;7.642;2023-12-28T06:08:31;10.30;99.90
3380;DHT22;1703;51.964;7.642;2023-12-28T06:10:59;10.30;99.90
3380;DHT22;1703;51.964;7.642;2023-12-28T06:13:26;10.30;99.90
3380;DHT22;1703;51.964;7.642;2023-12-28T06:15:53;10.30;99.90
3380;DHT22;1703;51.964;7.642;2023-12-28T06:18:20;10.30;99.90
3380;DHT22;1703;51.964;7.642;2023-12-28T06:20:47;10.30;99.90
3380;DHT22;1703;51.964;7.642;2023-12-28T06:23:14;10.30;99.90
3380;DHT22;1703;51.964;7.642;2023-12-28T06:25:41;10.30;99.90
3380;DHT22;1703;51.964;7.642;2023-12-28T06:28:09;10.30;99.90
3380;DHT22;1703;51.964;7.642;2023-12-28T06:30:36;10.40;99.90
3380;DHT22;1703;51.964;7.642;2023-12-28T06:33:03;10.40;99.90
3380;DHT22;1703;51.964;7.642;2023-12-28T06:35:30;10.40;99.90
3380;DHT22;1703;51.964;7.642;2023-12-28T06:37:57;10.50;99.90
3380;DHT22;1703;51.964;7.642;2023-12-28T06:40:24;10.50;99.90
3380;DHT22;1703;51.964;7.642;2023-12-28T06:42:50;10.50;99.90
3380;DHT22;1703;51.964;7.642;2023-12-28T06:45:18;10.60;99.90
3380;DHT22;1703;51.964;7.642;2023-12-28T06:47:45;10.70;99.90
3380;DHT22;1703;51.964;7.642;2023-12-28T06:50:12;10.70;99.90
3380;DHT22;1703;51.964;7.642;2023-12-28T06:52:39;10.70;99.90
3380;DHT22;1703;51.964;7.642;2023-12-28T06:55:06;10.70;99.90
3380;DHT22;1703;51.964;7.642;2023-12-28T06:57:33;10.70;99.90
3380;DHT22;1703;51.964;7.642;2023-12-28T07:00:00;10.80;99.90
3380;DHT22;1703;51.964;7.642;2023-12-28T07:02:29;10.70;99.90
3380;DHT22;1703;51.964;7.642;2023-12-28T07:04:56;10.70;99.90
3380;DHT22;1703;51.964;7.642;2023-12-28T07:07:23;10.70;99.90
3380;DHT22;1703;51.964;7.642;2023-12-28T07:09:50;10.80;99.90
3380;DHT22;1703;51.964;7.642;2023-12-28T07:12:17;10.70;99.90
3380;DHT22;1703;51.964;7.642;2023-12-28T07:14:46;10.80;99.90
3380;DHT22;1703;51.964;7.642;2023-12-28T07:17:12;10.80;99.90
3380;DHT22;1703;51.964;7.642;2023-12-28T07:19:44;10.70;99.90
3380;DHT22;1703;51.964;7.642;2023-12-28T07:22:10;10.70;99.90
3380;DHT22;1703;51.964;7.642;2023-12-28T07:24:37;10.70;99.90
3380;DHT22;1703;51.964;7.642;2023-12-28T07:27:04;10.70;99.90
3380;DHT22;1703;51.964;7.642;2023-12-28T07:29:31;10.70;99.90
3380;DHT22;1703;51.964;7.642;2023-12-28T07:31:58;10.70;99.90
3380;DHT22;1703;51.964;7.642;2023-12-28T07:34:25;10.70;99.90
3380;DHT22;1703;51.964;7.642;2023-12-28T07:36:54;10.70;99.90
3380;DHT22;1703;51.964;7.642;2023-12-28T07:39:20;10.80;99.90
3380;DHT22;1703;51.964;7.642;2023-12-28T07:41:47;10.80;99.90
3380;DHT22;1703;51.964;7.642;2023-12-28T07:44:15;10.80;99.90
3380;DHT22;1703;51.964;7.642;2023-12-28T07:46:43;10.80;99.90
3380;DHT22;1703;51.964;7.642;2023-12-28T07:49:09;10.80;99.90
3380;DHT22;1703;51.964;7.642;2023-12-28T07:51:36;10.80;99.90
3380;DHT22;1703;51.964;7.642;2023-12-28T07:54:04;10.80;99.90
3380;DHT22;1703;51.964;7.642;2023-12-28T07:56:31;10.80;99.90
3380;DHT22;1703;51.964;7.642;2023-12-28T07:58:58;10.80;99.90
3380;DHT22;1703;51.964;7.642;2023-12-28T08:01:25;10.80;99.90
3380;DHT22;1703;51.964;7.642;2023-12-28T08:03:51;10.80;99.90
3380;DHT22;1703;51.964;7.642;2023-12-28T08:06:19;10.80;99.90
3380;DHT22;1703;51.964;7.642;2023-12-28T08:08:45;10.80;99.90
3380;DHT22;1703;51.964;7.642;2023-12-28T08:11:17;10.80;99.90
3380;DHT22;1703;51.964;7.642;2023-12-28T08:13:43;10.80;99.90
3380;DHT22;1703;51.964;7.642;2023-12-28T08:16:10;10.80;99.90
3380;DHT22;1703;51.964;7.642;2023-12-28T08:18:37;10.80;99.90
3380;DHT22;1703;51.964;7.642;2023-12-28T08:21:04;10.80;99.90
3380;DHT22;1703;51.964;7.642;2023-12-28T08:23:31;10.80;99.90
3380;DHT22;1703;51.964;7.642;2023-12-28T08:25:57;10.70;99.90
3380;DHT22;1703;51.964;7.642;2023-12-28T08:28:25;10.80;99.90
3380;DHT22;1703;51.964;7.642;2023-12-28T08:30:52;10.90;99.90
3380;DHT22;1703;51.964;7.642;2023-12-28T08:33:19;10.80;99.90
3380;DHT22;1703;51.964;7.642;2023-12-28T08:35:46;10.90;99.90
3380;DHT22;1703;51.964;7.642;2023-12-28T08:38:13;10.90;99.90
3380;DHT22;1703;51.964;7.642;2023-12-28T08:40:39;10.90;99.90
3380;DHT22;1703;51.964;7.642;2023-12-28T08:43:06;10.90;99.90
3380;DHT22;1703;51.964;7.642;2023-12-28T08:45:34;10.90;99.90
3380;DHT22;1703;51.964;7.642;2023-12-28T08:48:01;10.90;99.90
3380;DHT22;1703;51.964;7.642;2023-12-28T08:50:28;10.90;99.90
3380;DHT22;1703;51.964;7.642;2023-12-28T08:52:55;11.00;99.90
3380;DHT22;1703;51.964;7.642;2023-12-28T08:55:22;11.00;99.90
3380;DHT22;1703;51.964;7.642;2023-12-28T08:57:49;11.00;99.90
3380;DHT22;1703;51.964;7.642;2023-12-28T09:00:15;11.00;99.90
3380;DHT22;1703;51.964;7.642;2023-12-28T09:02:44;11.10;99.90
3380;DHT22;1703;51.964;7.642;2023-12-28T09:05:11;11.20;99.90
3380;DHT22;1703;51.964;7.642;2023-12-28T09:07:38;11.20;99.90
3380;DHT22;1703;51.964;7.642;2023-12-28T09:10:09;11.20;99.90
3380;DHT22;1703;51.964;7.642;2023-12-28T09:12:36;11.20;99.90
3380;DHT22;1703;51.964;7.642;2023-12-28T09:15:04;11.10;99.90
3380;DHT22;1703;51.964;7.642;2023-12-28T09:17:31;11.10;99.90
3380;DHT22;1703;51.964;7.642;2023-12-28T09:19:59;11.10;99.90
3380;DHT22;1703;51.964;7.642;2023-12-28T09:22:27;11.20;99.90
3380;DHT22;1703;51.964;7.642;2023-12-28T09:24:53;11.20;99.90
3380;DHT22;1703;51.964;7.642;2023-12-28T09:27:20;11.20;99.90
3380;DHT22;1703;51.964;7.642;2023-12-28T09:29:47;11.20;99.90
3380;DHT22;1703;51.964;7.642;2023-12-28T09:32:14;11.20;99.90
3380;DHT22;1703;51.964;7.642;2023-12-28T09:34:42;11.20;99.90
3380;DHT22;1703;51.964;7.642;2023-12-28T09:37:10;11.20;99.90
3380;DHT22;1703;51.964;7.642;2023-12-28T09:39:37;11.30;99.90
3380;DHT22;1703;51.964;7.642;2023-12-28T09:42:06;11.30;99.90
3380;DHT22;1703;51.964;7.642;2023-12-28T09:44:36;11.30;99.90
3380;DHT22;1703;51.964;7.642;2023-12-28T09:47:05;11.40;99.90
3380;DHT22;1703;51.964;7.642;2023-12-28T09:49:32;11.40;99.90
3380;DHT22;1703;51.964;7.642;2023-12-28T09:51:59;11.40;99.90
3380;DHT22;1703;51.964;7.642;2023-12-28T09:54:28;11.50;99.90
3380;DHT22;1703;51.964;7.642;2023-12-28T09:56:55;11.50;99.90
3380;DHT22;1703;51.964;7.642;2023-12-28T09:59:22;11.50;99.90
3380;DHT22;1703;51.964;7.642;2023-12-28T10:01:50;11.50;99.90
3380;DHT22;1703;51.964;7.642;2023-12-28T10:04:17;11.60;99.90
3380;DHT22;1703;51.964;7.642;2023-12-28T10:06:44;11.60;99.90
3380;DHT22;1703;51.964;7.642;2023-12-28T10:09:11;11.50;99.90
3380;DHT22;1703;51.964;7.642;2023-12-28T10:11:39;11.50;99.90
3380;DHT22;1703;51.964;7.642;2023-12-28T10:14:07;11.50;99.90
3380;DHT22;1703;51.964;7.642;2023-12-28T10:16:33;11.50;99.90
3380;DHT22;1703;51.964;7.642;2023-12-28T10:19:00;11.50;99.90
3380;DHT22;1703;51.964;7.642;2023-12-28T10:21:27;11.50;99.90
3380;DHT22;1703;51.964;7.642;2023-12-28T10:23:55;11.50;99.90
3380;DHT22;1703;51.964;7.642;2023-12-28T10:26:22;11.50;99.90
3380;DHT22;1703;51.964;7.642;2023-12-28T10:28:57;11.50;99.90
3380;DHT22;1703;51.964;7.642;2023-12-28T10:31:23;11.60;99.90
3380;DHT22;1703;51.964;7.642;2023-12-28T10:33:50;11.60;99.90
3380;DHT22;1703;51.964;7.642;2023-12-28T10:36:18;11.60;99.90
3380;DHT22;1703;51.964;7.642;2023-12-28T10:38:47;11.70;99.90
3380;DHT22;1703;51.964;7.642;2023-12-28T10:41:18;11.70;99.90
3380;DHT22;1703;51.964;7.642;2023-12-28T10:43:46;11.70;99.90
3380;DHT22;1703;51.964;7.642;2023-12-28T10:46:22;11.80;99.90
3380;DHT22;1703;51.964;7.642;2023-12-28T10:48:53;11.70;99.90
3380;DHT22;1703;51.964;7.642;2023-12-28T10:51:25;11.80;99.90
3380;DHT22;1703;51.964;7.642;2023-12-28T10:53:59;11.80;99.90
3380;DHT22;1703;51.964;7.642;2023-12-28T10:56:35;11.80;99.90
3380;DHT22;1703;51.964;7.642;2023-12-28T10:59:09;11.80;99.90
3380;DHT22;1703;51.964;7.642;2023-12-28T11:01:41;11.90;99.90
3380;DHT22;1703;51.964;7.642;2023-12-28T11:04:16;11.80;99.90
3380;DHT22;1703;51.964;7.642;2023-12-28T11:06:46;11.80;99.90
3380;DHT22;1703;51.964;7.642;2023-12-28T11:09:15;11.70;99.90
3380;DHT22;1703;51.964;7.642;2023-12-28T11:11:42;11.70;99.90
3380;DHT22;1703;51.964;7.642;2023-12-28T11:14:10;11.80;99.90
3380;DHT22;1703;51.964;7.642;2023-12-28T11:16:40;11.80;99.90
3380;DHT22;1703;51.964;7.642;2023-12-28T11:19:08;11.90;99.90
3380;DHT22;1703;51.964;7.642;2023-12-28T11:21:37;11.90;99.90
3380;DHT22;1703;51.964;7.642;2023-12-28T11:24:06;11.90;99.90
3380;DHT22;1703;51.964;7.642;2023-12-28T11:26:33;11.90;99.90
3380;DHT22;1703;51.964;7.642;2023-12-28T11:29:00;11.90;99.90
3380;DHT22;1703;51.964;7.642;2023-12-28T11:31:27;11.90;99.90
3380;DHT22;1703;51.964;7.642;2023-12-28T11:33:56;11.90;99.90
3380;DHT22;1703;51.964;7.642;2023-12-28T11:36:27;11.90;99.90
3380;DHT22;1703;51.964;7.642;2023-12-28T11:39:01;11.90;99.90
3380;DHT22;1703;51.964;7.642;2023-12-28T11:41:31;11.90;99.90
3380;DHT22;1703;51.964;7.642;2023-12-28T11:44:01;11.90;99.90
3380;DHT22;1703;51.964;7.642;2023-12-28T11:46:29;11.90;99.90
3380;DHT22;1703;51.964;7.642;2023-12-28T11:49:04;12.00;99.90
3380;DHT22;1703;51.964;7.642;2023-12-28T11:51:32;11.90;99.90
3380;DHT22;1703;51.964;7.642;2023-12-28T11:53:59;11.90;99.90
3380;DHT22;1703;51.964;7.642;2023-12-28T11:56:26;11.90;99.90
3380;DHT22;1703;51.964;7.642;2023-12-28T11:58:53;11.90;99.90
3380;DHT22;1703;51.964;7.642;2023-12-28T12:01:20;11.90;99.90
3380;DHT22;1703;51.964;7.642;2023-12-28T12:03:48;11.90;99.90
3380;DHT22;1703;51.964;7.642;2023-12-28T12:06:16;12.00;99.90
3380;DHT22;1703;51.964;7.642;2023-12-28T12:08:45;12.00;99.90
3380;DHT22;1703;51.964;7.642;2023-12-28T12:11:12;12.00;99.90
3380;DHT22;1703;51.964;7.642;2023-12-28T12:13:39;11.90;99.90
3380;DHT22;1703;51.964;7.642;2023-12-28T12:16:06;12.00;99.90
3380;DHT22;1703;51.964;7.642;2023-12-28T12:18:33;12.00;99.90
3380;DHT22;1703;51.964;7.642;2023-12-28T12:21:01;12.10;99.90
3380;DHT22;1703;51.964;7.642;2023-12-28T12:23:29;12.00;99.90
3380;DHT22;1703;51.964;7.642;2023-12-28T12:25:56;12.00;99.90
3380;DHT22;1703;51.964;7.642;2023-12-28T12:28:23;12.00;99.90
3380;DHT22;1703;51.964;7.642;2023-12-28T12:30:51;12.00;99.90
3380;DHT22;1703;51.964;7.642;2023-12-28T12:33:18;12.00;99.90
3380;DHT22;1703;51.964;7.642;2023-12-28T12:35:45;12.00;99.90
3380;DHT22;1703;51.964;7.642;2023-12-28T12:38:12;12.10;99.90
3380;DHT22;1703;51.964;7.642;2023-12-28T12:40:40;12.00;99.90
3380;DHT22;1703;51.964;7.642;2023-12-28T12:43:07;12.10;99.90
3380;DHT22;1703;51.964;7.642;2023-12-28T12:45:35;12.10;99.90
3380;DHT22;1703;51.964;7.642;2023-12-28T12:48:03;12.00;99.90
3380;DHT22;1703;51.964;7.642;2023-12-28T12:50:31;12.10;99.90
3380;DHT22;1703;51.964;7.642;2023-12-28T12:52:59;12.00;99.90
3380;DHT22;1703;51.964;7.642;2023-12-28T12:55:26;12.10;99.90
3380;DHT22;1703;51.964;7.642;2023-12-28T12:57:54;12.10;99.90
3380;DHT22;1703;51.964;7.642;2023-12-28T13:00:22;12.10;99.90
3380;DHT22;1703;51.964;7.642;2023-12-28T13:02:49;12.00;99.90
3380;DHT22;1703;51.964;7.642;2023-12-28T13:05:18;12.00;99.90
3380;DHT22;1703;51.964;7.642;2023-12-28T13:07:45;12.00;99.90
3380;DHT22;1703;51.964;7.642;2023-12-28T13:10:12;12.10;99.90
3380;DHT22;1703;51.964;7.642;2023-12-28T13:12:39;12.10;99.90
3380;DHT22;1703;51.964;7.642;2023-12-28T13:15:08;12.10;99.90
3380;DHT22;1703;51.964;7.642;2023-12-28T13:17:35;12.00;99.90
3380;DHT22;1703;51.964;7.642;2023-12-28T13:20:03;12.00;99.90
3380;DHT22;1703;51.964;7.642;2023-12-28T13:22:31;11.90;99.90
3380;DHT22;1703;51.964;7.642;2023-12-28T13:24:58;11.90;99.90
3380;DHT22;1703;51.964;7.642;2023-12-28T13:27:25;11.90;99.90
3380;DHT22;1703;51.964;7.642;2023-12-28T13:29:52;11.90;99.90
3380;DHT22;1703;51.964;7.642;2023-12-28T13:32:20;11.90;99.90
3380;DHT22;1703;51.964;7.642;2023-12-28T13:34:48;11.90;99.90
3380;DHT22;1703;51.964;7.642;2023-12-28T13:37:16;11.90;99.90
3380;DHT22;1703;51.964;7.642;2023-12-28T13:39:43;11.90;99.90
3380;DHT22;1703;51.964;7.642;2023-12-28T13:42:09;12.00;99.90
3380;DHT22;1703;51.964;7.642;2023-12-28T13:44:36;12.00;99.90
3380;DHT22;1703;51.964;7.642;2023-12-28T13:47:04;12.00;99.90
3380;DHT22;1703;51.964;7.642;2023-12-28T13:49:32;11.90;99.90
3380;DHT22;1703;51.964;7.642;2023-12-28T13:51:59;11.90;99.90
3380;DHT22;1703;51.964;7.642;2023-12-28T13:54:26;11.90;99.90
3380;DHT22;1703;51.964;7.642;2023-12-28T13:56:53;12.00;99.90
3380;DHT22;1703;51.964;7.642;2023-12-28T13:59:23;12.00;99.90
3380;DHT22;1703;51.964;7.642;2023-12-28T14:01:50;12.00;99.90
3380;DHT22;1703;51.964;7.642;2023-12-28T14:04:17;12.00;99.90
3380;DHT22;1703;51.964;7.642;2023-12-28T14:06:45;11.90;99.90
3380;DHT22;1703;51.964;7.642;2023-12-28T14:09:12;11.90;99.90
3380;DHT22;1703;51.964;7.642;2023-12-28T14:11:40;11.90;99.90
3380;DHT22;1703;51.964;7.642;2023-12-28T14:14:06;11.90;99.90
3380;DHT22;1703;51.964;7.642;2023-12-28T14:16:33;11.90;99.90
3380;DHT22;1703;51.964;7.642;2023-12-28T14:19:00;11.90;99.90
3380;DHT22;1703;51.964;7.642;2023-12-28T14:21:27;11.80;99.90
3380;DHT22;1703;51.964;7.642;2023-12-28T14:23:56;11.90;99.90
3380;DHT22;1703;51.964;7.642;2023-12-28T14:26:23;11.80;99.90
3380;DHT22;1703;51.964;7.642;2023-12-28T14:28:51;11.80;99.90
3380;DHT22;1703;51.964;7.642;2023-12-28T14:31:18;11.90;99.90
3380;DHT22;1703;51.964;7.642;2023-12-28T14:33:46;11.90;99.90
3380;DHT22;1703;51.964;7.642;2023-12-28T14:36:25;11.90;99.90
3380;DHT22;1703;51.964;7.642;2023-12-28T14:38:53;11.80;99.90
3380;DHT22;1703;51.964;7.642;2023-12-28T14:41:22;11.90;99.90
3380;DHT22;1703;51.964;7.642;2023-12-28T14:43:49;11.90;99.90
3380;DHT22;1703;51.964;7.642;2023-12-28T14:46:15;11.90;99.90
3380;DHT22;1703;51.964;7.642;2023-12-28T14:48:42;11.80;99.90
3380;DHT22;1703;51.964;7.642;2023-12-28T14:51:09;11.80;99.90
3380;DHT22;1703;51.964;7.642;2023-12-28T14:53:36;11.80;99.90
3380;DHT22;1703;51.964;7.642;2023-12-28T14:56:03;11.80;99.90
3380;DHT22;1703;51.964;7.642;2023-12-28T14:58:31;11.70;99.90
3380;DHT22;1703;51.964;7.642;2023-12-28T15:00:58;11.70;99.90
3380;DHT22;1703;51.964;7.642;2023-12-28T15:03:25;11.70;99.90
3380;DHT22;1703;51.964;7.642;2023-12-28T15:05:51;11.70;99.90
3380;DHT22;1703;51.964;7.642;2023-12-28T15:08:18;11.70;99.90
3380;DHT22;1703;51.964;7.642;2023-12-28T15:10:46;11.70;99.90
3380;DHT22;1703;51.964;7.642;2023-12-28T15:13:13;11.70;99.90
3380;DHT22;1703;51.964;7.642;2023-12-28T15:15:42;11.80;99.90
3380;DHT22;1703;51.964;7.642;2023-12-28T15:18:10;11.80;99.90
3380;DHT22;1703;51.964;7.642;2023-12-28T15:20:37;11.80;99.90
3380;DHT22;1703;51.964;7.642;2023-12-28T15:23:05;11.70;99.90
3380;DHT22;1703;51.964;7.642;2023-12-28T15:25:32;11.80;99.90
3380;DHT22;1703;51.964;7.642;2023-12-28T15:27:59;11.80;99.90
3380;DHT22;1703;51.964;7.642;2023-12-28T15:30:26;11.70;99.90
3380;DHT22;1703;51.964;7.642;2023-12-28T15:32:54;11.70;99.90
3380;DHT22;1703;51.964;7.642;2023-12-28T15:35:21;11.70;99.90
3380;DHT22;1703;51.964;7.642;2023-12-28T15:37:48;11.80;99.90
3380;DHT22;1703;51.964;7.642;2023-12-28T15:40:16;11.70;99.90
3380;DHT22;1703;51.964;7.642;2023-12-28T15:42:43;11.80;99.90
3380;DHT22;1703;51.964;7.642;2023-12-28T15:45:10;11.80;99.90
3380;DHT22;1703;51.964;7.642;2023-12-28T15:47:37;11.70;99.90
3380;DHT22;1703;51.964;7.642;2023-12-28T15:50:05;11.70;99.90
3380;DHT22;1703;51.964;7.642;2023-12-28T15:52:32;11.80;99.90
3380;DHT22;1703;51.964;7.642;2023-12-28T15:54:59;11.70;99.90
3380;DHT22;1703;51.964;7.642;2023-12-28T15:57:26;11.70;99.90
3380;DHT22;1703;51.964;7.642;2023-12-28T15:59:53;11.70;99.90
3380;DHT22;1703;51.964;7.642;2023-12-28T16:02:24;11.70;99.90
3380;DHT22;1703;51.964;7.642;2023-12-28T16:04:51;11.60;99.90
3380;DHT22;1703;51.964;7.642;2023-12-28T16:07:19;11.70;99.90
3380;DHT22;1703;51.964;7.642;2023-12-28T16:09:46;11.70;99.90
3380;DHT22;1703;51.964;7.642;2023-12-28T16:12:13;11.60;99.90